Time;durP1;ratioP1;P1;durP2;ratioP2;P2;SDS_P1;SDS_P2;PMS_P1;PMS_P2;Temp;Humidity;BMP_temperature;BMP_pressure;BME280_temperature;BME280_humidity;BME280_pressure;Samples;Min_cycle;Max_cycle;Signal;HPM_P1;HPM_P2
2021/04/17 00:02:22;;;;;;;10.68;5.50;;;4.80;99.90;;;5.98;61.71;101571.66;4831496;29;20045;-81
2021/04/17 00:04:49;;;;;;;13.65;6.43;;;4.80;99.90;;;5.99;61.76;101578.03;4829118;29;20110;-82
2021/04/17 00:07:17;;;;;;;10.27;5.25;;;4.80;99.90;;;5.91;62.32;101575.97;4830567;29;20057;-81
2021/04/17 00:09:44;;;;;;;12.10;5.75;;;4.70;99.90;;;5.80;62.55;101573.34;4830916;29;20035;-80
2021/04/17 00:12:16;;;;;;;15.52;7.25;;;4.60;99.90;;;5.67;63.30;101573.28;4831000;29;20046;-81
2021/04/17 00:14:47;;;;;;;12.63;5.80;;;4.60;99.90;;;5.58;63.63;101573.16;4813555;29;20068;-82
2021/04/17 00:17:16;;;;;;;13.18;5.85;;;4.50;99.90;;;5.51;63.93;101577.44;4830902;29;20498;-81
2021/04/17 00:19:48;;;;;;;13.80;6.35;;;4.40;99.90;;;5.41;64.51;101572.88;4830558;29;20041;-83
2021/04/17 00:22:15;;;;;;;11.82;5.85;;;4.30;99.90;;;5.37;64.66;101571.84;4829550;29;20066;-80
2021/04/17 00:24:41;;;;;;;9.35;5.63;;;4.30;99.90;;;5.33;64.78;101573.56;4830714;29;20034;-81
2021/04/17 00:27:08;;;;;;;9.48;5.53;;;4.20;99.90;;;5.25;64.83;101577.84;4839010;29;20038;-81
2021/04/17 00:29:36;;;;;;;9.15;4.88;;;4.10;99.90;;;5.22;64.90;101574.84;4822736;29;20094;-82
2021/04/17 00:32:07;;;;;;;8.93;5.25;;;4.10;99.90;;;5.21;64.75;101570.41;4830322;29;20103;-84
2021/04/17 00:34:34;;;;;;;10.70;6.05;;;4.10;99.90;;;5.20;65.10;101572.38;4813868;29;20057;-83
2021/04/17 00:37:00;;;;;;;15.85;5.25;;;4.10;99.90;;;5.24;65.23;101570.66;4828734;29;20480;-82
2021/04/17 00:39:26;;;;;;;9.18;5.20;;;4.10;99.90;;;5.27;65.49;101567.28;4830952;29;20047;-82
2021/04/17 00:41:52;;;;;;;18.42;6.95;;;4.10;99.90;;;5.25;65.91;101566.75;4828637;29;20038;-82
2021/04/17 00:44:19;;;;;;;10.43;5.97;;;4.10;99.90;;;5.26;65.58;101568.41;4829300;29;20037;-80
2021/04/17 00:46:46;;;;;;;12.15;5.35;;;4.10;99.90;;;5.32;65.27;101563.63;4812300;29;20034;-80
2021/04/17 00:49:12;;;;;;;9.95;4.63;;;4.10;99.90;;;5.31;65.63;101570.28;4830378;29;20448;-83
2021/04/17 00:51:40;;;;;;;11.57;5.50;;;4.10;99.90;;;5.27;66.06;101570.03;4813636;29;20507;-83
2021/04/17 00:54:08;;;;;;;9.95;5.40;;;4.10;99.90;;;5.30;65.95;101568.63;4811120;29;20133;-81
2021/04/17 00:56:34;;;;;;;9.13;5.03;;;4.10;99.90;;;5.32;65.63;101567.22;4827131;29;20034;-84
2021/04/17 00:59:00;;;;;;;11.43;5.30;;;4.20;99.90;;;5.30;65.85;101569.44;4828884;29;20138;-81
2021/04/17 01:01:28;;;;;;;11.77;5.25;;;4.20;99.90;;;5.32;65.44;101563.63;4827824;29;20054;-82
2021/04/17 01:04:08;;;;;;;12.23;4.70;;;4.20;99.90;;;5.33;65.43;101568.84;4811973;29;20117;-84
2021/04/17 01:07:02;;;;;;;7.95;4.85;;;4.20;99.90;;;5.37;65.53;101568.22;4828757;29;20057;-85
2021/04/17 01:09:43;;;;;;;9.55;4.70;;;4.20;99.90;;;5.36;65.95;101572.97;4828846;29;20086;-83
2021/04/17 01:12:15;;;;;;;11.05;5.25;;;4.20;99.90;;;5.29;66.33;101575.31;4826305;29;20034;-83
2021/04/17 01:14:47;;;;;;;9.95;4.90;;;4.10;99.90;;;5.23;66.01;101569.00;4827047;29;20473;-84
2021/04/17 01:17:15;;;;;;;8.32;4.53;;;4.10;99.90;;;5.19;65.65;101561.59;4826633;29;20361;-81
2021/04/17 01:20:50;;;;;;;16.15;5.20;;;4.00;99.90;;;5.11;66.37;101560.31;4826760;29;20075;-83
2021/04/17 01:23:39;;;;;;;10.07;4.50;;;4.00;99.90;;;5.08;66.34;101563.69;4774506;30;20080;-83
2021/04/17 01:26:14;;;;;;;9.55;4.28;;;4.00;99.90;;;5.03;66.80;101558.25;4789768;30;20047;-83
2021/04/17 01:28:49;;;;;;;7.63;4.80;;;3.90;99.90;;;5.02;66.69;101572.38;4806806;29;20046;-83
2021/04/17 01:31:22;;;;;;;9.90;5.07;;;3.90;99.90;;;4.99;67.04;101561.88;4827800;29;20107;-84
2021/04/17 01:33:56;;;;;;;11.05;5.55;;;3.80;99.90;;;4.97;67.09;101564.97;4827779;29;20045;-85
2021/04/17 01:36:26;;;;;;;9.68;4.85;;;3.80;99.90;;;4.93;67.43;101566.69;4818999;29;20082;-83
2021/04/17 01:39:04;;;;;;;11.85;4.85;;;3.80;99.90;;;4.90;67.29;101566.47;4827448;29;20035;-81
2021/04/17 01:41:40;;;;;;;7.75;5.10;;;3.80;99.90;;;4.87;67.44;101575.34;4827022;29;20031;-83
2021/04/17 01:44:25;;;;;;;13.88;5.78;;;3.70;99.90;;;4.82;68.50;101561.59;4827036;29;20471;-82
2021/04/17 01:47:12;;;;;;;8.85;5.55;;;3.70;99.90;;;4.80;67.59;101559.13;4832864;29;20034;-82
2021/04/17 01:49:50;;;;;;;8.65;4.78;;;3.60;99.90;;;4.71;68.35;101558.97;4847314;29;20032;-79
2021/04/17 01:52:24;;;;;;;10.65;5.43;;;3.60;99.90;;;4.63;68.46;101562.38;4842378;29;20057;-80
2021/04/17 01:54:56;;;;;;;8.90;4.75;;;3.50;99.90;;;4.54;68.74;101555.84;4845315;29;20025;-81
2021/04/17 01:57:26;;;;;;;9.98;4.68;;;3.40;99.90;;;4.44;69.35;101544.09;4844600;29;20045;-80
2021/04/17 01:59:54;;;;;;;11.48;5.30;;;3.40;99.90;;;4.37;69.49;101547.22;4822662;29;20399;-84
2021/04/17 02:02:20;;;;;;;8.40;5.03;;;3.30;99.90;;;4.36;69.79;101544.75;4829299;29;20320;-82
2021/04/17 02:04:46;;;;;;;9.25;5.40;;;3.30;99.90;;;4.32;69.76;101546.44;4812568;29;20065;-81
2021/04/17 02:07:13;;;;;;;10.93;5.32;;;3.20;99.90;;;4.25;70.55;101552.34;4829163;29;20030;-84
2021/04/17 02:09:39;;;;;;;11.32;5.05;;;3.10;99.90;;;4.24;70.47;101556.22;4813535;29;20030;-83
2021/04/17 02:12:06;;;;;;;18.75;5.60;;;3.10;99.90;;;4.22;70.39;101552.94;4813934;29;20046;-83
2021/04/17 02:14:33;;;;;;;13.23;5.50;;;3.20;99.90;;;4.18;70.97;101554.63;4813885;29;20038;-84
2021/04/17 02:17:25;;;;;;;11.52;5.28;;;3.10;99.90;;;4.12;71.02;101547.50;4813256;29;20031;-81
2021/04/17 02:20:13;;;;;;;12.55;5.43;;;3.00;99.90;;;4.09;71.11;101550.84;4828624;29;20038;-82
2021/04/17 02:22:42;;;;;;;12.73;5.55;;;3.00;99.90;;;4.06;71.73;101555.03;4829792;29;20026;-85
2021/04/17 02:25:11;;;;;;;10.60;4.85;;;3.00;99.90;;;3.99;71.55;101543.50;4829918;29;20030;-84
2021/04/17 02:27:37;;;;;;;8.55;5.38;;;2.90;99.90;;;3.96;72.14;101543.25;4839224;29;20042;-82
2021/04/17 02:30:04;;;;;;;9.85;5.30;;;2.90;99.90;;;3.94;72.61;101535.28;4827391;29;20041;-81
2021/04/17 02:32:30;;;;;;;12.90;5.43;;;2.90;99.90;;;3.94;72.26;101534.44;4828245;29;20122;-82
2021/04/17 02:34:56;;;;;;;10.30;5.65;;;2.90;99.90;;;3.90;72.25;101539.72;4827423;29;20070;-81
2021/04/17 02:37:22;;;;;;;11.15;4.95;;;2.80;99.90;;;3.84;72.89;101537.31;4827941;29;20034;-81
2021/04/17 02:39:48;;;;;;;10.52;4.80;;;2.80;99.90;;;3.68;72.72;101536.63;4826580;29;20328;-82
2021/04/17 02:42:17;;;;;;;16.25;5.35;;;2.60;99.90;;;3.58;73.49;101542.25;4826931;29;20038;-81
2021/04/17 02:44:47;;;;;;;9.93;5.10;;;2.50;99.90;;;3.66;73.76;101542.44;4825066;29;20023;-81
2021/04/17 02:47:13;;;;;;;8.07;4.90;;;2.60;99.90;;;3.68;73.79;101543.00;4836800;29;20052;-81
2021/04/17 02:49:39;;;;;;;12.85;5.28;;;2.60;99.90;;;3.70;73.54;101535.22;4828018;29;20102;-83
2021/04/17 02:52:06;;;;;;;10.35;5.57;;;2.60;99.90;;;3.69;73.66;101539.09;4827236;29;20026;-84
2021/04/17 02:54:32;;;;;;;10.50;4.95;;;2.60;99.90;;;3.73;73.33;101533.81;4810831;29;20054;-81
2021/04/17 02:56:58;;;;;;;11.15;5.32;;;2.60;99.90;;;3.71;73.82;101538.81;4828219;29;20121;-83
2021/04/17 02:59:24;;;;;;;13.30;5.88;;;2.60;99.90;;;3.76;73.53;101546.25;4827478;29;20061;-82
2021/04/17 03:01:50;;;;;;;17.85;6.03;;;2.60;99.90;;;3.78;73.62;101541.25;4827864;29;20046;-81
2021/04/17 03:04:16;;;;;;;20.08;6.07;;;2.60;99.90;;;3.76;73.59;101538.75;4827759;29;20046;-81
2021/04/17 03:06:53;;;;;;;17.75;6.97;;;2.70;99.90;;;3.74;73.26;101538.22;4828606;29;20031;-83
2021/04/17 03:09:19;;;;;;;12.48;5.63;;;2.60;99.90;;;3.69;73.87;101546.59;4826210;29;20049;-81
2021/04/17 03:11:45;;;;;;;12.85;6.10;;;2.60;99.90;;;3.69;73.79;101544.63;4828608;29;20034;-83
2021/04/17 03:14:11;;;;;;;10.77;5.65;;;2.60;99.90;;;3.67;74.03;101543.25;4828137;29;20428;-83
2021/04/17 03:16:37;;;;;;;13.02;5.85;;;2.60;99.90;;;3.58;74.32;101548.59;4828197;29;20034;-83
2021/04/17 03:19:04;;;;;;;16.08;5.45;;;2.50;99.90;;;3.46;74.79;101548.16;4826894;29;20539;-83
2021/04/17 03:21:30;;;;;;;14.30;5.70;;;2.40;99.90;;;3.34;75.13;101546.88;4808209;29;20662;-83
2021/04/17 03:23:55;;;;;;;11.55;5.68;;;2.30;99.90;;;3.26;75.38;101537.28;4808347;29;20035;-82
2021/04/17 03:26:22;;;;;;;12.05;5.88;;;2.20;99.90;;;3.17;76.18;101537.06;4808300;29;20695;-79
2021/04/17 03:28:48;;;;;;;13.32;6.72;;;2.10;99.90;;;3.06;76.28;101535.47;4809917;29;20372;-81
2021/04/17 03:31:14;;;;;;;15.95;6.53;;;2.00;99.90;;;2.99;76.71;101539.66;4811478;29;20057;-82
2021/04/17 03:33:40;;;;;;;9.93;5.32;;;2.00;99.90;;;2.93;77.05;101529.78;4827272;29;20031;-82
2021/04/17 03:36:06;;;;;;;20.85;6.28;;;1.90;99.90;;;2.89;76.97;101534.25;4811613;29;20106;-83
2021/04/17 03:38:34;;;;;;;12.05;5.90;;;1.90;99.90;;;2.85;77.28;101535.91;4811162;29;20173;-85
2021/04/17 03:41:01;;;;;;;10.68;5.60;;;1.80;99.90;;;2.71;77.57;101537.63;4811855;29;20041;-82
2021/04/17 03:43:27;;;;;;;11.07;5.68;;;1.70;99.90;;;2.56;77.63;101533.88;4811015;29;20034;-81
2021/04/17 03:45:54;;;;;;;13.88;5.85;;;1.60;99.90;;;2.44;78.62;101544.38;4811085;29;20027;-82
2021/04/17 03:48:19;;;;;;;14.45;6.38;;;1.50;99.90;;;2.36;78.56;101541.38;4827936;29;20052;-82
2021/04/17 03:50:45;;;;;;;12.63;6.60;;;1.40;99.90;;;2.30;78.94;101537.00;4812902;29;20129;-83
2021/04/17 03:53:11;;;;;;;11.10;6.00;;;1.30;99.90;;;2.29;79.44;101544.44;4812386;29;20125;-84
2021/04/17 03:55:37;;;;;;;11.70;6.63;;;1.30;99.90;;;2.28;79.69;101542.00;4811482;29;20038;-81
2021/04/17 03:58:03;;;;;;;13.90;6.40;;;1.20;99.90;;;2.23;79.99;101540.06;4826356;29;20050;-82
2021/04/17 04:00:29;;;;;;;12.30;6.45;;;1.20;99.90;;;2.17;80.13;101546.69;4827062;29;20061;-82
2021/04/17 04:02:55;;;;;;;13.93;6.05;;;1.20;99.90;;;2.03;80.32;101546.47;4825724;29;20031;-83
2021/04/17 04:05:21;;;;;;;9.63;5.68;;;1.00;99.90;;;1.94;80.95;101545.38;4828047;29;20038;-83
2021/04/17 04:07:47;;;;;;;13.68;6.60;;;1.00;99.90;;;1.95;81.21;101546.22;4826802;29;20106;-82
2021/04/17 04:10:14;;;;;;;15.68;7.60;;;1.00;99.90;;;2.01;81.60;101553.34;4828942;29;20113;-81
2021/04/17 04:12:44;;;;;;;13.50;6.30;;;1.00;99.90;;;1.95;81.75;101555.31;4826748;29;20093;-81
2021/04/17 04:15:13;;;;;;;10.52;6.70;;;1.00;99.90;;;1.87;81.38;101561.38;4828158;29;20026;-80
2021/04/17 04:17:41;;;;;;;11.52;5.90;;;0.90;99.90;;;1.81;81.77;101558.91;4828163;29;20038;-82
2021/04/17 04:20:09;;;;;;;13.10;6.45;;;0.80;99.90;;;1.80;82.18;101557.28;4828015;29;20117;-82
2021/04/17 04:22:36;;;;;;;12.77;6.50;;;0.80;99.90;;;1.78;82.51;101559.47;4828496;29;20085;-84
2021/04/17 04:25:05;;;;;;;12.18;7.25;;;0.80;99.90;;;1.79;82.73;101550.09;4828884;29;20034;-81
2021/04/17 04:27:32;;;;;;;14.18;6.85;;;0.80;99.90;;;1.83;82.86;101559.47;4827571;29;20030;-83
2021/04/17 04:29:57;;;;;;;13.32;6.60;;;0.80;99.90;;;1.86;82.79;101556.94;4828248;29;20042;-83
2021/04/17 04:32:23;;;;;;;12.90;6.20;;;0.80;99.90;;;1.85;82.78;101560.84;4826858;29;20030;-83
2021/04/17 04:34:49;;;;;;;14.30;6.88;;;0.90;99.90;;;1.82;82.88;101558.63;4828231;29;20027;-83
2021/04/17 04:37:15;;;;;;;16.80;7.00;;;0.80;99.90;;;1.81;83.21;101565.25;4828457;29;20118;-82
2021/04/17 04:39:41;;;;;;;12.43;6.80;;;0.80;99.90;;;1.85;83.32;101558.06;4828466;29;20065;-83
2021/04/17 04:42:09;;;;;;;15.10;7.32;;;0.80;99.90;;;1.86;83.26;101559.72;4826519;29;20107;-82
2021/04/17 04:44:36;;;;;;;12.68;6.28;;;0.80;99.90;;;1.87;83.32;101563.28;4827728;29;20034;-84
2021/04/17 04:47:03;;;;;;;12.93;6.78;;;0.80;99.90;;;1.88;83.31;101565.78;4828548;29;20041;-82
2021/04/17 04:49:29;;;;;;;10.07;6.35;;;0.80;99.90;;;1.89;83.21;101564.69;4827240;29;20120;-81
2021/04/17 04:51:55;;;;;;;17.35;7.00;;;0.80;99.90;;;1.93;83.16;101563.00;4828931;29;20064;-84
2021/04/17 04:54:21;;;;;;;13.70;7.03;;;0.90;99.90;;;1.95;83.29;101563.56;4827980;29;20039;-82
2021/04/17 04:56:47;;;;;;;12.13;6.45;;;0.90;99.90;;;1.94;83.21;101561.91;4827594;29;20031;-82
2021/04/17 04:59:12;;;;;;;11.50;6.28;;;0.90;99.90;;;1.89;83.21;101567.44;4827815;29;20038;-82
2021/04/17 05:01:38;;;;;;;11.55;6.93;;;0.90;99.90;;;1.86;83.29;101562.47;4845227;29;20027;-79
2021/04/17 05:04:05;;;;;;;10.98;6.72;;;0.80;99.90;;;1.82;83.11;101563.31;4840346;29;20065;-83
2021/04/17 05:06:32;;;;;;;11.35;6.50;;;0.80;99.90;;;1.79;83.17;101572.97;4828261;29;20031;-84
2021/04/17 05:08:59;;;;;;;12.52;7.15;;;0.80;99.90;;;1.79;83.10;101564.69;4828561;29;20041;-82
2021/04/17 05:11:25;;;;;;;13.13;6.90;;;0.80;99.90;;;1.84;83.42;101569.38;4830120;29;20061;-83
2021/04/17 05:13:52;;;;;;;10.18;6.90;;;0.80;99.90;;;1.90;83.37;101571.00;4825079;29;20070;-84
2021/04/17 05:16:18;;;;;;;12.82;7.60;;;0.80;99.90;;;1.97;83.26;101572.38;4829225;29;20480;-83
2021/04/17 05:18:44;;;;;;;19.25;6.80;;;0.90;99.90;;;2.06;83.38;101570.69;4828405;29;20041;-84
2021/04/17 05:21:10;;;;;;;12.00;6.93;;;1.00;99.90;;;2.15;83.24;101567.38;4812475;29;20042;-83
2021/04/17 05:23:36;;;;;;;13.48;7.40;;;1.00;99.90;;;2.22;83.53;101568.72;4813008;29;20463;-83
2021/04/17 05:26:02;;;;;;;11.80;7.10;;;1.10;99.90;;;2.31;83.11;101561.50;4811555;29;20121;-81
2021/04/17 05:28:27;;;;;;;11.68;7.07;;;1.20;99.90;;;2.37;83.54;101563.19;4812498;29;20034;-82
2021/04/17 05:30:53;;;;;;;11.00;6.35;;;1.30;99.90;;;2.49;83.44;101565.59;4828844;29;20041;-83
2021/04/17 05:33:19;;;;;;;14.18;7.63;;;1.40;99.90;;;2.62;83.30;101560.31;4812310;29;20288;-82
2021/04/17 05:35:45;;;;;;;13.10;7.07;;;1.50;99.90;;;2.77;82.99;101561.31;4829254;29;20042;-83
2021/04/17 05:38:11;;;;;;;11.52;6.88;;;1.60;99.90;;;2.91;82.99;101579.75;4828288;29;20498;-84
2021/04/17 05:40:36;;;;;;;11.82;7.10;;;1.70;99.90;;;3.09;82.83;101564.44;4811716;29;20087;-82
2021/04/17 05:43:03;;;;;;;13.43;7.65;;;1.90;99.90;;;3.32;82.64;101568.41;4830665;29;20034;-84
2021/04/17 05:45:29;;;;;;;13.23;7.15;;;2.00;99.90;;;3.58;83.07;101569.88;4813558;29;20106;-84
2021/04/17 05:47:55;;;;;;;17.52;7.32;;;2.20;99.90;;;3.82;82.64;101572.72;4829936;29;20504;-85
2021/04/17 05:50:21;;;;;;;13.48;7.18;;;2.40;99.90;;;4.06;82.21;101563.34;4814664;29;20081;-84
2021/04/17 05:52:47;;;;;;;15.02;7.57;;;2.60;99.90;;;4.32;81.10;101563.03;4830691;29;20156;-82
2021/04/17 05:55:14;;;;;;;13.18;7.65;;;2.80;99.90;;;4.63;80.52;101567.09;4814869;29;20046;-83
2021/04/17 05:57:40;;;;;;;11.23;6.50;;;3.00;99.90;;;4.95;79.50;101572.75;4813369;29;20034;-84
2021/04/17 06:00:08;;;;;;;11.00;6.80;;;3.20;99.90;;;5.28;78.62;101570.88;4831112;29;20065;-82
2021/04/17 06:02:34;;;;;;;10.10;6.65;;;3.50;99.90;;;5.63;76.56;101561.97;4814420;29;20042;-84
2021/04/17 06:05:00;;;;;;;12.90;7.18;;;3.80;99.90;;;6.01;75.71;101562.72;4829740;29;20063;-86
2021/04/17 06:07:26;;;;;;;11.27;5.68;;;4.10;99.90;;;6.40;74.79;101566.97;4829483;29;20031;-85
2021/04/17 06:09:52;;;;;;;10.27;6.10;;;4.40;99.90;;;6.77;73.42;101562.03;4813636;29;20043;-86
2021/04/17 06:12:18;;;;;;;11.38;6.63;;;4.80;99.90;;;7.14;71.29;101562.88;4812586;29;20038;-83
2021/04/17 06:14:44;;;;;;;10.90;5.97;;;5.10;99.90;;;7.49;70.12;101578.69;4830073;29;20034;-84
2021/04/17 06:17:10;;;;;;;16.92;6.18;;;5.50;99.90;;;7.69;66.83;101569.88;4813342;29;20042;-83
2021/04/17 06:19:36;;;;;;;13.63;6.03;;;5.70;99.90;;;7.84;65.55;101568.63;4813833;29;20045;-83
2021/04/17 06:22:03;;;;;;;11.57;6.55;;;5.90;99.90;;;8.02;64.91;101573.19;4829062;29;20066;-82
2021/04/17 06:24:29;;;;;;;12.30;5.57;;;6.20;99.90;;;8.22;64.05;101574.59;4828768;29;20038;-84
2021/04/17 06:26:55;;;;;;;14.15;6.00;;;6.40;99.90;;;8.38;63.12;101567.50;4812022;29;20038;-83
2021/04/17 06:29:20;;;;;;;10.65;5.65;;;6.60;99.90;;;8.41;62.67;101570.44;4827942;29;20183;-85
2021/04/17 06:31:47;;;;;;;10.95;5.60;;;6.70;99.90;;;8.55;62.51;101563.94;4815160;29;20046;-85
2021/04/17 06:34:12;;;;;;;15.38;6.40;;;6.90;99.90;;;8.54;61.92;101556.75;4814363;29;20034;-84
2021/04/17 06:36:38;;;;;;;12.48;6.22;;;6.90;99.90;;;8.59;61.71;101556.59;4830961;29;20456;-84
2021/04/17 06:39:08;;;;;;;12.82;6.22;;;7.00;99.90;;;8.72;60.88;101562.06;4832259;29;20045;-84
2021/04/17 06:41:37;;;;;;;12.63;6.00;;;7.00;99.90;;;8.97;60.89;101555.72;4831124;29;20448;-83
2021/04/17 06:44:07;;;;;;;12.88;5.63;;;7.20;99.90;;;9.30;59.81;101563.59;4817632;29;20058;-82
2021/04/17 06:46:38;;;;;;;9.95;5.40;;;7.40;99.90;;;9.61;59.11;101563.44;4833977;29;20034;-84
2021/04/17 06:49:07;;;;;;;11.57;5.93;;;7.70;99.90;;;9.82;58.09;101562.44;4833936;29;20031;-80
2021/04/17 06:51:37;;;;;;;12.00;6.15;;;7.90;99.90;;;9.73;56.11;101567.19;4817523;29;20031;-85
2021/04/17 06:54:06;;;;;;;13.57;5.85;;;8.00;99.90;;;9.77;56.90;101561.75;4815062;29;20483;-82
2021/04/17 06:56:33;;;;;;;15.32;5.93;;;8.00;99.90;;;9.88;56.67;101558.31;4812564;29;20034;-81
2021/04/17 06:58:59;;;;;;;14.38;6.07;;;8.10;99.90;;;9.88;55.73;101560.28;4812916;29;20039;-82
2021/04/17 07:01:26;;;;;;;13.13;6.60;;;8.10;99.90;;;10.04;56.21;101550.22;4812054;29;20034;-84
2021/04/17 07:03:52;;;;;;;12.75;5.60;;;8.30;99.90;;;10.33;54.67;101557.88;4828157;29;20086;-83
2021/04/17 07:06:17;;;;;;;10.80;5.53;;;8.50;99.90;;;10.36;54.54;101554.41;4811856;29;20058;-83
2021/04/17 07:08:43;;;;;;;11.38;6.22;;;8.60;99.90;;;10.71;53.96;101555.06;4828110;29;20034;-82
2021/04/17 07:11:09;;;;;;;13.32;7.05;;;8.80;99.90;;;10.63;53.76;101564.31;4828981;29;20069;-84
2021/04/17 07:13:35;;;;;;;17.65;6.90;;;8.90;99.90;;;10.73;53.20;101556.34;4828424;29;20042;-86
2021/04/17 07:16:09;;;;;;;15.60;5.75;;;9.00;99.90;;;10.93;53.40;101561.19;4828825;29;20109;-83
2021/04/17 07:18:38;;;;;;;14.35;5.97;;;9.10;99.90;;;11.07;53.12;101564.53;4826056;29;20110;-80
2021/04/17 07:21:13;;;;;;;17.75;7.22;;;9.30;99.90;;;11.47;52.06;101564.06;4837794;29;20038;-83
2021/04/17 07:23:45;;;;;;;14.77;6.40;;;9.60;99.90;;;11.65;51.04;101563.56;4826581;29;20041;-82
2021/04/17 07:26:25;;;;;;;14.43;6.60;;;9.80;99.90;;;11.94;51.49;101562.66;4828939;29;20054;-79
2021/04/17 07:29:13;;;;;;;14.50;6.07;;;9.90;99.90;;;12.05;50.25;101558.25;4829554;29;20037;-81
2021/04/17 07:31:55;;;;;;;14.18;6.50;;;10.10;99.90;;;12.01;50.73;101562.06;4813138;29;20568;-83
2021/04/17 07:34:24;;;;;;;11.35;5.45;;;10.20;99.90;;;11.82;50.96;101562.59;4812352;29;20038;-82
2021/04/17 07:36:59;;;;;;;12.85;5.00;;;10.10;99.90;;;11.69;50.95;101565.69;4828455;29;20035;-84
2021/04/17 07:39:42;;;;;;;13.35;5.45;;;10.00;99.90;;;11.84;51.37;101560.31;4812735;29;20038;-84
2021/04/17 07:42:15;;;;;;;11.30;5.20;;;10.10;99.90;;;11.99;50.60;101556.00;4811915;29;20038;-83
2021/04/17 07:44:48;;;;;;;14.02;5.38;;;10.30;99.90;;;12.46;50.05;101556.44;4811410;29;20035;-83
2021/04/17 07:47:34;;;;;;;13.38;5.85;;;10.50;99.90;;;12.48;49.15;101552.16;4827814;29;20491;-83
2021/04/17 07:50:11;;;;;;;14.15;5.35;;;10.60;98.90;;;12.56;49.73;101556.81;4829662;29;20042;-83
2021/04/17 07:52:37;;;;;;;10.80;5.70;;;10.60;99.90;;;12.74;48.96;101549.00;4811018;29;20456;-86
2021/04/17 07:55:17;;;;;;;9.82;5.05;;;10.80;98.50;;;12.35;48.86;101552.47;4811627;29;20480;-84
2021/04/17 07:57:55;;;;;;;11.68;4.90;;;10.60;97.90;;;12.55;48.75;101549.56;4828768;29;20087;-83
2021/04/17 08:00:23;;;;;;;14.40;5.45;;;10.70;98.10;;;12.67;48.61;101545.94;4844955;29;20022;-85
2021/04/17 08:02:53;;;;;;;10.18;5.10;;;10.90;96.70;;;12.69;48.52;101540.81;4816721;29;20179;-83
2021/04/17 08:05:23;;;;;;;12.15;4.75;;;11.00;96.20;;;12.86;48.50;101543.38;4831261;29;20073;-84
2021/04/17 08:07:52;;;;;;;8.65;4.55;;;11.00;96.50;;;13.13;47.40;101541.84;4830809;29;20109;-83
2021/04/17 08:10:20;;;;;;;13.10;5.05;;;11.20;95.20;;;13.12;47.85;101543.00;4814459;29;20122;-82
2021/04/17 08:12:48;;;;;;;10.25;4.22;;;11.30;94.40;;;13.34;47.63;101536.06;4813530;29;20039;-80
2021/04/17 08:15:20;;;;;;;11.57;4.78;;;11.50;93.90;;;13.37;47.26;101533.34;4811735;29;20461;-85
2021/04/17 08:17:50;;;;;;;10.68;4.82;;;11.60;93.00;;;13.62;46.98;101534.91;4812607;29;20046;-84
2021/04/17 08:20:18;;;;;;;11.93;4.82;;;11.70;92.80;;;13.78;47.10;101528.50;4812938;29;20031;-83
2021/04/17 08:22:50;;;;;;;10.75;4.50;;;11.90;92.70;;;13.36;47.00;101525.28;4829705;29;20026;-83
2021/04/17 08:25:23;;;;;;;15.60;4.72;;;12.00;90.20;;;13.63;46.74;101532.91;4813027;29;20034;-82
2021/04/17 08:27:51;;;;;;;11.93;4.90;;;12.00;90.20;;;14.17;45.98;101533.19;4829051;29;20038;-82
2021/04/17 08:30:35;;;;;;;10.35;5.07;;;12.20;89.90;;;13.82;45.99;101521.81;4812784;29;20022;-82
2021/04/17 08:33:27;;;;;;;11.77;5.78;;;12.20;87.20;;;14.22;45.30;101522.50;4814450;29;20031;-82
2021/04/17 08:35:53;;;;;;;19.45;8.05;;;12.50;86.80;;;14.23;45.76;101520.50;4814674;29;20045;-83
2021/04/17 08:38:19;;;;;;;15.73;7.28;;;12.60;86.30;;;13.86;46.65;101519.94;4831249;29;20038;-82
2021/04/17 08:40:50;;;;;;;13.00;6.78;;;12.40;87.30;;;13.54;47.01;101523.81;4813947;29;20031;-85
2021/04/17 08:43:17;;;;;;;12.82;6.97;;;12.00;88.80;;;13.16;46.98;101519.50;4829003;29;20034;-83
2021/04/17 08:46:14;;;;;;;10.35;5.03;;;11.70;88.40;;;13.06;46.17;101508.75;4828481;29;20162;-83
2021/04/17 08:48:58;;;;;;;10.73;5.38;;;11.60;86.80;;;13.09;47.21;101512.88;4812604;29;20030;-84
2021/04/17 08:51:33;;;;;;;16.13;7.07;;;11.50;89.30;;;13.01;47.55;101509.00;4828613;29;20034;-83
2021/04/17 08:54:01;;;;;;;7.00;4.25;;;11.50;89.60;;;12.94;46.56;101508.75;4829050;29;20035;-84
2021/04/17 08:56:55;;;;;;;11.45;4.07;;;11.40;86.80;;;12.70;47.06;101506.00;4829031;29;20055;-85
2021/04/17 08:59:37;;;;;;;8.48;3.30;;;11.20;86.90;;;12.52;47.95;101504.63;4828767;29;20038;-85
2021/04/17 09:02:11;;;;;;;7.05;2.92;;;11.10;89.30;;;13.04;46.35;101496.25;4812551;29;20034;-85
2021/04/17 09:05:09;;;;;;;8.35;3.42;;;11.40;87.20;;;13.09;46.18;101493.25;4830026;29;20031;-83
2021/04/17 09:07:40;;;;;;;6.20;2.90;;;11.50;85.50;;;13.36;46.29;101491.59;4815259;29;20148;-83
2021/04/17 09:10:25;;;;;;;8.00;3.50;;;11.70;86.30;;;13.91;45.19;101500.00;4797042;29;20163;-85
2021/04/17 09:13:10;;;;;;;12.32;4.47;;;12.00;85.70;;;13.95;45.55;101498.09;4796557;29;20041;-80
2021/04/17 09:15:58;;;;;;;9.75;3.42;;;12.20;85.30;;;14.09;44.95;101500.47;4796079;29;20786;-85
2021/04/17 09:18:34;;;;;;;12.50;3.72;;;12.30;83.80;;;14.06;45.23;101499.19;4811877;29;20500;-82
2021/04/17 09:21:14;;;;;;;6.07;2.88;;;12.40;83.50;;;14.32;45.07;101506.28;4796277;29;20054;-84
2021/04/17 09:23:52;;;;;;;5.90;3.13;;;12.50;84.00;;;14.12;45.27;101500.56;4811134;29;20043;-82
2021/04/17 09:26:33;;;;;;;7.65;3.20;;;12.40;82.90;;;13.59;46.22;101513.16;4794876;29;20121;-82
2021/04/17 09:29:23;;;;;;;8.68;3.83;;;12.20;82.80;;;13.34;46.48;101497.59;4811404;29;20041;-83
2021/04/17 09:31:51;;;;;;;10.10;4.13;;;11.90;84.90;;;13.73;46.94;101504.31;4810708;29;20127;-83
2021/04/17 09:34:20;;;;;;;10.50;3.53;;;12.10;86.50;;;14.14;45.41;101503.00;4809361;29;20114;-85
2021/04/17 09:36:50;;;;;;;10.23;3.63;;;12.40;84.60;;;14.34;45.07;101495.53;4793815;29;20077;-80
2021/04/17 09:39:31;;;;;;;11.48;3.80;;;12.50;82.90;;;14.50;44.62;101497.16;4798895;29;20755;-81
2021/04/17 09:42:04;;;;;;;11.52;4.18;;;12.70;81.80;;;14.90;43.97;101499.69;4813840;29;20054;-84
2021/04/17 09:44:50;;;;;;;9.38;3.20;;;13.00;80.60;;;15.55;42.48;101494.28;4794741;29;20532;-85
2021/04/17 09:47:18;;;;;;;7.20;3.38;;;13.50;79.00;;;15.70;41.14;101490.59;4794095;29;20524;-86
2021/04/17 09:49:48;;;;;;;10.98;3.63;;;13.90;74.10;;;15.75;40.22;101488.28;4795036;29;20033;-84
2021/04/17 09:52:19;;;;;;;9.73;3.15;;;14.10;71.00;;;15.49;40.38;101490.16;4810192;29;20034;-87
2021/04/17 09:55:06;;;;;;;7.93;3.70;;;13.80;70.80;;;15.11;41.74;101485.31;4794654;29;20389;-85
2021/04/17 09:57:32;;;;;;;10.43;3.15;;;13.50;73.10;;;14.82;41.53;101477.41;4811186;29;20477;-85
2021/04/17 10:00:04;;;;;;;8.38;3.55;;;13.30;71.10;;;14.84;40.68;101475.03;4793899;29;20130;-84
2021/04/17 10:02:46;;;;;;;9.23;3.47;;;13.20;70.50;;;14.39;41.36;101478.38;4794961;29;20039;-81
2021/04/17 10:05:31;;;;;;;6.47;3.13;;;13.00;70.70;;;14.80;40.50;101474.97;4811418;29;20038;-87
2021/04/17 10:07:58;;;;;;;7.57;3.13;;;13.20;70.30;;;15.03;40.28;101461.00;4817568;29;20527;-85
2021/04/17 10:10:24;;;;;;;7.15;3.10;;;13.50;68.80;;;15.25;38.68;101466.69;4817672;29;20059;-85
2021/04/17 10:12:54;;;;;;;6.72;3.67;;;13.50;66.40;;;15.04;39.93;101466.25;4815760;29;20062;-82
2021/04/17 10:15:26;;;;;;;8.52;3.50;;;13.50;67.60;;;14.99;39.67;101460.13;4833197;29;20045;-85
2021/04/17 10:17:58;;;;;;;7.82;3.67;;;13.50;67.30;;;14.78;39.81;101461.25;4819054;29;20091;-81
2021/04/17 10:20:27;;;;;;;7.60;4.70;;;13.40;67.30;;;14.60;39.11;101445.16;4820629;29;20039;-85
2021/04/17 10:23:00;;;;;;;11.05;3.88;;;13.20;65.90;;;14.35;40.44;101440.97;4819815;29;20091;-83
2021/04/17 10:25:42;;;;;;;7.18;3.67;;;12.90;67.20;;;13.72;41.56;101440.91;4845813;29;20022;-81
2021/04/17 10:28:24;;;;;;;7.95;3.40;;;12.50;68.50;;;13.92;41.56;101450.25;4831483;29;20072;-82
2021/04/17 10:31:19;;;;;;;10.05;3.30;;;12.40;69.50;;;14.03;41.73;101440.94;4846063;29;20037;-80
2021/04/17 10:33:48;;;;;;;10.23;3.70;;;12.50;69.80;;;13.92;42.88;101444.66;4830936;29;20054;-81